createdAt,value
2023-05-08T00:01:17.594Z,101474.63
2023-05-08T00:03:44.191Z,101480.91
2023-05-08T00:06:10.879Z,101480.94
2023-05-08T00:08:37.374Z,101485.59
2023-05-08T00:11:03.880Z,101479.00
2023-05-08T00:13:30.400Z,101486.94
2023-05-08T00:15:56.815Z,101485.84
2023-05-08T00:18:23.435Z,101484.19
2023-05-08T00:20:49.931Z,101491.31
2023-05-08T00:23:16.401Z,101494.06
2023-05-08T00:25:43.009Z,101492.41
2023-05-08T00:28:09.609Z,101496.28
2023-05-08T00:30:36.396Z,101498.19
2023-05-08T00:33:02.929Z,101500.41
2023-05-08T00:35:29.539Z,101503.69
2023-05-08T00:37:56.239Z,101503.41
2023-05-08T00:40:22.988Z,101499.56
2023-05-08T00:42:49.397Z,101508.34
2023-05-08T00:45:15.843Z,101500.38
2023-05-08T00:47:42.850Z,101508.34
2023-05-08T00:50:10.638Z,101507.72
2023-05-08T00:52:38.137Z,101509.34
2023-05-08T00:55:06.552Z,101511.00
2023-05-08T00:57:35.655Z,101516.44
2023-05-08T01:00:04.615Z,101515.09
2023-05-08T01:02:32.071Z,101512.06
2023-05-08T01:04:58.966Z,101512.63
2023-05-08T01:07:25.678Z,101518.41
2023-05-08T01:09:52.252Z,101513.19
2023-05-08T01:12:41.177Z,101512.63
2023-05-08T01:15:31.553Z,101507.69
2023-05-08T01:18:09.903Z,101504.38
2023-05-08T01:20:46.921Z,101508.19
2023-05-08T01:23:32.030Z,101507.06
2023-05-08T01:26:29.787Z,101509.50
2023-05-08T01:29:30.764Z,101506.69
2023-05-08T01:32:15.861Z,101505.31
2023-05-08T01:35:00.566Z,101506.91
2023-05-08T01:37:38.127Z,101508.03
2023-05-08T01:40:32.678Z,101506.34
2023-05-08T01:43:29.940Z,101518.19
2023-05-08T01:45:59.182Z,101521.19
2023-05-08T01:48:27.888Z,101522.28
2023-05-08T01:51:02.496Z,101514.63
2023-05-08T01:53:31.794Z,101516.75
2023-05-08T01:56:03.536Z,101519.25
2023-05-08T01:58:32.855Z,101528.31
2023-05-08T02:01:02.214Z,101533.84
2023-05-08T02:03:31.862Z,101540.69
2023-05-08T02:06:00.771Z,101528.09
2023-05-08T02:08:29.774Z,101531.66
2023-05-08T02:10:57.754Z,101535.22
2023-05-08T02:13:26.399Z,101540.91
2023-05-08T02:15:56.127Z,101535.44
2023-05-08T02:18:25.081Z,101538.19
2023-05-08T02:20:53.683Z,101547.50
2023-05-08T02:23:23.611Z,101543.13
2023-05-08T02:25:51.210Z,101541.81
2023-05-08T02:28:18.871Z,101539.88
2023-05-08T02:30:46.499Z,101541.50
2023-05-08T02:33:14.857Z,101541.50
2023-05-08T02:35:44.899Z,101544.50
2023-05-08T02:38:13.310Z,101542.63
2023-05-08T02:40:45.925Z,101547.50
2023-05-08T02:43:12.436Z,101543.09
2023-05-08T02:45:43.774Z,101541.41
2023-05-08T02:48:14.062Z,101551.59
2023-05-08T02:51:03.073Z,101551.31
2023-05-08T02:53:34.648Z,101551.81
2023-05-08T02:56:30.701Z,101548.56
2023-05-08T02:59:18.733Z,101549.06
2023-05-08T03:01:52.751Z,101547.19
2023-05-08T03:04:25.914Z,101551.06
2023-05-08T03:06:56.859Z,101546.91
2023-05-08T03:09:26.413Z,101551.31
2023-05-08T03:12:02.268Z,101545.53
2023-05-08T03:14:32.381Z,101541.91
2023-05-08T03:17:00.986Z,101544.91
2023-05-08T03:19:36.077Z,101537.50
2023-05-08T03:22:05.136Z,101543.50
2023-05-08T03:24:37.511Z,101543.22
2023-05-08T03:27:05.643Z,101545.09
2023-05-08T03:29:33.897Z,101544.53
2023-05-08T03:32:02.392Z,101542.59
2023-05-08T03:34:30.319Z,101540.13
2023-05-08T03:36:57.255Z,101544.28
2023-05-08T03:39:26.306Z,101545.41
2023-05-08T03:41:53.088Z,101549.22
2023-05-08T03:44:20.418Z,101547.25
2023-05-08T03:46:47.876Z,101545.00
2023-05-08T03:49:14.973Z,101546.13
2023-05-08T03:51:42.646Z,101545.28
2023-05-08T03:54:09.094Z,101544.72
2023-05-08T03:56:35.642Z,101542.84
2023-05-08T03:59:50.089Z,101541.44
2023-05-08T04:02:33.700Z,101540.75
2023-05-08T04:05:12.185Z,101534.97
2023-05-08T04:07:47.438Z,101531.94
2023-05-08T04:10:21.743Z,101534.38
2023-05-08T04:13:06.125Z,101537.69
2023-05-08T04:15:43.703Z,101534.94
2023-05-08T04:18:14.967Z,101536.56
2023-05-08T04:20:46.293Z,101548.59
2023-05-08T04:23:15.436Z,101548.00
2023-05-08T04:25:42.903Z,101546.94
2023-05-08T04:28:11.175Z,101542.03
2023-05-08T04:30:39.371Z,101552.75
2023-05-08T04:33:07.145Z,101543.97
2023-05-08T04:35:34.266Z,101547.03
2023-05-08T04:38:00.896Z,101559.63
2023-05-08T04:40:27.277Z,101564.03
2023-05-08T04:42:53.751Z,101557.19
2023-05-08T04:45:20.684Z,101558.53
2023-05-08T04:47:47.177Z,101562.88
2023-05-08T04:50:13.644Z,101563.25
2023-05-08T04:52:40.104Z,101563.25
2023-05-08T04:55:07.217Z,101558.91
2023-05-08T04:57:33.751Z,101563.81
2023-05-08T05:00:00.244Z,101564.34
2023-05-08T05:02:27.019Z,101566.53
2023-05-08T05:04:53.608Z,101570.31
2023-05-08T05:07:20.018Z,101577.50
2023-05-08T05:09:46.401Z,101580.19
2023-05-08T05:12:12.913Z,101573.38
2023-05-08T05:14:39.327Z,101586.19
2023-05-08T05:17:06.124Z,101580.75
2023-05-08T05:19:32.590Z,101585.72
2023-05-08T05:21:59.809Z,101585.22
2023-05-08T05:24:26.378Z,101588.25
2023-05-08T05:26:52.936Z,101587.94
2023-05-08T05:29:19.350Z,101585.53
2023-05-08T05:31:45.893Z,101595.19
2023-05-08T05:34:12.582Z,101603.63
2023-05-08T05:36:39.010Z,101595.06
2023-05-08T05:39:05.536Z,101601.88
2023-05-08T05:41:32.135Z,101601.97
2023-05-08T05:43:58.685Z,101601.16
2023-05-08T05:46:32.319Z,101605.56
2023-05-08T05:48:59.150Z,101608.28
2023-05-08T05:51:25.633Z,101607.72
2023-05-08T05:53:52.081Z,101610.19
2023-05-08T05:56:18.616Z,101604.44
2023-05-08T05:58:45.426Z,101606.59
2023-05-08T06:01:12.311Z,101614.91
2023-05-08T06:03:38.941Z,101612.75
2023-05-08T06:06:05.713Z,101620.16
2023-05-08T06:08:32.308Z,101616.34
2023-05-08T06:10:58.864Z,101618.25
2023-05-08T06:13:25.448Z,101618.81
2023-05-08T06:15:56.404Z,101620.41
2023-05-08T06:18:23.472Z,101614.44
2023-05-08T06:20:55.952Z,101623.22
2023-05-08T06:23:22.293Z,101623.56
2023-05-08T06:25:49.553Z,101624.38
2023-05-08T06:28:16.027Z,101620.97
2023-05-08T06:30:42.492Z,101626.84
2023-05-08T06:33:09.633Z,101633.66
2023-05-08T06:35:36.494Z,101630.09
2023-05-08T06:38:03.264Z,101630.97
2023-05-08T06:40:29.746Z,101632.41
2023-05-08T06:42:56.168Z,101628.25
2023-05-08T06:45:22.607Z,101635.94
2023-05-08T06:47:49.121Z,101626.16
2023-05-08T06:50:15.767Z,101632.00
2023-05-08T06:52:42.358Z,101630.56
2023-05-08T06:55:09.257Z,101631.59
2023-05-08T06:57:35.944Z,101633.50
2023-05-08T07:00:02.465Z,101636.59
2023-05-08T07:02:29.049Z,101629.94
2023-05-08T07:04:55.485Z,101628.00
2023-05-08T07:07:22.319Z,101635.47
2023-05-08T07:09:48.803Z,101625.09
2023-05-08T07:12:16.795Z,101623.97
2023-05-08T07:14:43.657Z,101623.72
2023-05-08T07:17:10.295Z,101619.91
2023-05-08T07:19:37.547Z,101619.63
2023-05-08T07:22:05.366Z,101616.94
2023-05-08T07:24:32.603Z,101621.34
2023-05-08T07:27:02.200Z,101619.94
2023-05-08T07:29:28.649Z,101627.38
2023-05-08T07:31:55.133Z,101629.09
2023-05-08T07:34:21.705Z,101634.31
2023-05-08T07:36:48.055Z,101642.59
2023-05-08T07:39:14.563Z,101650.03
2023-05-08T07:41:41.365Z,101648.97
2023-05-08T07:44:08.010Z,101647.59
2023-05-08T07:46:34.550Z,101641.84
2023-05-08T07:49:01.238Z,101638.81
2023-05-08T07:51:27.682Z,101640.75
2023-05-08T07:53:55.194Z,101641.84
2023-05-08T07:56:23.059Z,101647.41
2023-05-08T07:58:49.487Z,101648.63
2023-05-08T08:01:18.118Z,101651.97
2023-05-08T08:03:48.320Z,101648.50
2023-05-08T08:06:14.890Z,101650.41
2023-05-08T08:08:41.416Z,101655.22
2023-05-08T08:11:07.874Z,101660.72
2023-05-08T08:13:34.506Z,101659.84
2023-05-08T08:16:04.038Z,101662.09
2023-05-08T08:18:33.555Z,101670.44
2023-05-08T08:20:59.907Z,101659.16
2023-05-08T08:23:26.385Z,101668.25
2023-05-08T08:25:53.478Z,101664.72
2023-05-08T08:28:19.884Z,101668.53
2023-05-08T08:30:46.353Z,101661.41
2023-05-08T08:33:12.847Z,101661.94
2023-05-08T08:35:39.240Z,101665.81
2023-05-08T08:38:05.953Z,101662.00
2023-05-08T08:40:32.527Z,101665.84
2023-05-08T08:42:59.108Z,101655.50
2023-05-08T08:45:25.934Z,101662.66
2023-05-08T08:47:53.505Z,101669.19
2023-05-08T08:50:22.050Z,101660.44
2023-05-08T08:53:21.511Z,101667.03
2023-05-08T08:55:52.029Z,101652.78
2023-05-08T08:58:23.135Z,101660.47
2023-05-08T09:00:50.177Z,101656.59
2023-05-08T09:03:17.303Z,101651.69
2023-05-08T09:05:45.479Z,101653.31
2023-05-08T09:08:12.778Z,101657.16
2023-05-08T09:10:39.209Z,101658.31
2023-05-08T09:13:05.933Z,101658.91
2023-05-08T09:15:33.349Z,101662.72
2023-05-08T09:18:02.809Z,101671.00
2023-05-08T09:20:30.320Z,101669.31
2023-05-08T09:22:57.689Z,101662.47
2023-05-08T09:25:24.313Z,101656.97
2023-05-08T09:27:50.821Z,101660.03
2023-05-08T09:30:17.270Z,101653.19
2023-05-08T09:32:45.493Z,101660.56
2023-05-08T09:35:13.582Z,101655.63
2023-05-08T09:37:42.130Z,101667.97
2023-05-08T09:40:20.904Z,101655.59
2023-05-08T09:42:49.042Z,101659.47
2023-05-08T09:45:31.719Z,101663.84
2023-05-08T09:47:58.783Z,101666.06
2023-05-08T09:50:25.600Z,101667.44
2023-05-08T09:52:52.230Z,101667.13
2023-05-08T09:55:20.029Z,101670.72
2023-05-08T09:58:00.242Z,101671.50
2023-05-08T10:00:28.485Z,101671.50
2023-05-08T10:03:00.593Z,101675.31
2023-05-08T10:05:31.263Z,101676.94
2023-05-08T10:07:59.748Z,101680.75
2023-05-08T10:10:28.031Z,101682.38
2023-05-08T10:12:56.260Z,101674.75
2023-05-08T10:15:31.328Z,101674.16
2023-05-08T10:18:08.702Z,101673.03
2023-05-08T10:20:39.796Z,101672.72
2023-05-08T10:23:11.394Z,101664.75
2023-05-08T10:25:46.430Z,101663.91
2023-05-08T10:28:37.001Z,101665.84
2023-05-08T10:31:05.579Z,101663.69
2023-05-08T10:33:34.455Z,101660.69
2023-05-08T10:36:01.284Z,101658.75
2023-05-08T10:38:28.083Z,101664.25
2023-05-08T10:40:58.217Z,101655.75
2023-05-08T10:43:25.292Z,101646.69
2023-05-08T10:45:56.821Z,101650.00
2023-05-08T10:48:33.192Z,101641.78
2023-05-08T10:51:13.728Z,101641.22
2023-05-08T10:53:46.302Z,101637.94
2023-05-08T10:56:12.711Z,101640.69
2023-05-08T10:58:39.663Z,101641.22
2023-05-08T11:01:09.274Z,101643.13
2023-05-08T11:03:42.041Z,101646.69
2023-05-08T11:06:08.791Z,101647.78
2023-05-08T11:08:46.687Z,101651.66
2023-05-08T11:11:31.368Z,101653.28
2023-05-08T11:14:10.446Z,101652.75
2023-05-08T11:16:55.247Z,101641.22
2023-05-08T11:19:23.410Z,101653.22
2023-05-08T11:22:11.807Z,101650.97
2023-05-08T11:24:57.971Z,101649.00
2023-05-08T11:27:50.843Z,101643.81
2023-05-08T11:30:32.141Z,101654.16
2023-05-08T11:33:19.487Z,101647.56
2023-05-08T11:36:16.421Z,101643.19
2023-05-08T11:38:43.810Z,101639.06
2023-05-08T11:41:11.364Z,101641.28
2023-05-08T11:43:56.169Z,101634.47
2023-05-08T11:46:22.902Z,101636.16
2023-05-08T11:48:49.751Z,101633.69
2023-05-08T11:51:19.723Z,101637.25
2023-05-08T11:53:46.983Z,101636.16
2023-05-08T11:56:13.590Z,101627.38
2023-05-08T11:58:40.057Z,101629.84
2023-05-08T12:01:06.714Z,101628.25
2023-05-08T12:03:33.362Z,101622.22
2023-05-08T12:06:00.333Z,101629.59
2023-05-08T12:08:27.103Z,101621.91
2023-05-08T12:10:56.866Z,101628.03
2023-05-08T12:13:25.748Z,101630.81
2023-05-08T12:15:54.021Z,101629.16
2023-05-08T12:18:21.398Z,101632.44
2023-05-08T12:20:57.008Z,101629.72
2023-05-08T12:23:25.960Z,101624.19
2023-05-08T12:25:56.634Z,101628.59
2023-05-08T12:28:23.101Z,101632.19
2023-05-08T12:30:50.139Z,101631.34
2023-05-08T12:33:17.381Z,101643.44
2023-05-08T12:35:44.109Z,101628.66
2023-05-08T12:38:11.907Z,101627.56
2023-05-08T12:40:43.862Z,101622.63
2023-05-08T12:43:12.052Z,101623.75
2023-05-08T12:45:42.579Z,101622.63
2023-05-08T12:48:15.549Z,101621.81
2023-05-08T12:50:44.328Z,101620.72
2023-05-08T12:53:13.625Z,101617.97
2023-05-08T12:55:53.107Z,101618.25
2023-05-08T12:58:20.939Z,101619.88
2023-05-08T13:00:49.718Z,101620.97
2023-05-08T13:03:28.730Z,101608.91
2023-05-08T13:05:57.736Z,101605.91
2023-05-08T13:08:38.103Z,101608.41
2023-05-08T13:11:06.540Z,101604.81
2023-05-08T13:13:35.270Z,101603.97
2023-05-08T13:16:04.472Z,101602.34
2023-05-08T13:18:31.464Z,101600.16
2023-05-08T13:20:58.783Z,101595.19
2023-05-08T13:23:25.604Z,101594.09
2023-05-08T13:25:52.042Z,101594.09
2023-05-08T13:28:18.461Z,101593.06
2023-05-08T13:30:45.061Z,101589.19
2023-05-08T13:33:11.557Z,101582.59
2023-05-08T13:35:38.089Z,101575.44
2023-05-08T13:38:04.684Z,101569.13
2023-05-08T13:40:31.297Z,101565.56
2023-05-08T13:42:57.715Z,101557.88
2023-05-08T13:45:24.285Z,101551.25
2023-05-08T13:47:51.179Z,101552.91
2023-05-08T13:50:21.501Z,101552.91
2023-05-08T13:52:48.371Z,101554.28
2023-05-08T13:55:16.735Z,101553.44
2023-05-08T13:57:43.572Z,101551.81
2023-05-08T14:00:10.782Z,101547.94
2023-05-08T14:02:37.941Z,101546.28
2023-05-08T14:05:07.238Z,101534.19
2023-05-08T14:07:33.828Z,101539.09
2023-05-08T14:10:00.592Z,101529.75
2023-05-08T14:12:27.060Z,101528.63
2023-05-08T14:14:53.586Z,101530.53
2023-05-08T14:17:19.959Z,101525.31
2023-05-08T14:19:46.380Z,101526.13
2023-05-08T14:22:12.979Z,101526.97
2023-05-08T14:24:39.872Z,101525.25
2023-05-08T14:27:06.419Z,101522.50
2023-05-08T14:29:33.847Z,101518.41
2023-05-08T14:32:00.508Z,101526.34
2023-05-08T14:34:27.219Z,101522.44
2023-05-08T14:36:53.812Z,101519.13
2023-05-08T14:39:20.486Z,101525.16
2023-05-08T14:42:05.180Z,101529.53
2023-05-08T14:44:33.423Z,101524.28
2023-05-08T14:46:59.965Z,101523.13
2023-05-08T14:49:36.744Z,101520.06
2023-05-08T14:52:04.639Z,101521.19
2023-05-08T14:54:31.696Z,101511.53
2023-05-08T14:56:58.389Z,101509.53
2023-05-08T14:59:24.902Z,101518.06
2023-05-08T15:01:51.418Z,101517.28
2023-05-08T15:04:18.256Z,101521.69
2023-05-08T15:06:44.798Z,101527.47
2023-05-08T15:09:11.263Z,101517.25
2023-05-08T15:11:37.989Z,101515.84
2023-05-08T15:14:04.985Z,101512.28
2023-05-08T15:16:31.503Z,101517.22
2023-05-08T15:18:58.006Z,101524.28
2023-05-08T15:21:26.629Z,101520.09
2023-05-08T15:23:54.165Z,101514.69
2023-05-08T15:26:21.911Z,101507.22
2023-05-08T15:28:48.543Z,101506.94
2023-05-08T15:31:15.117Z,101510.22
2023-05-08T15:33:44.961Z,101512.38
2023-05-08T15:36:13.326Z,101510.44
2023-05-08T15:38:43.524Z,101508.50
2023-05-08T15:41:14.824Z,101501.84
2023-05-08T15:43:42.507Z,101497.66
2023-05-08T15:46:09.011Z,101500.25
2023-05-08T15:48:35.657Z,101499.56
2023-05-08T15:51:02.097Z,101502.84
2023-05-08T15:53:28.625Z,101494.63
2023-05-08T15:55:55.850Z,101496.25
2023-05-08T15:58:22.613Z,101501.56
2023-05-08T16:00:49.399Z,101494.75
2023-05-08T16:03:15.938Z,101498.69
2023-05-08T16:05:42.376Z,101492.91
2023-05-08T16:08:12.106Z,101487.69
2023-05-08T16:10:39.280Z,101483.25
2023-05-08T16:13:05.908Z,101487.09
2023-05-08T16:15:32.338Z,101487.81
2023-05-08T16:17:59.043Z,101491.06
2023-05-08T16:20:25.549Z,101491.34
2023-05-08T16:22:58.308Z,101491.22
2023-05-08T16:25:25.474Z,101486.22
2023-05-08T16:27:52.041Z,101487.81
2023-05-08T16:30:18.710Z,101484.78
2023-05-08T16:32:47.992Z,101481.50
2023-05-08T16:35:15.094Z,101471.84
2023-05-08T16:37:41.794Z,101475.63
2023-05-08T16:40:09.419Z,101470.91
2023-05-08T16:42:37.171Z,101466.50
2023-05-08T16:45:05.121Z,101470.47
2023-05-08T16:47:33.249Z,101461.13
2023-05-08T16:50:00.311Z,101458.91
2023-05-08T16:52:26.995Z,101466.66
2023-05-08T16:54:53.464Z,101467.75
2023-05-08T16:57:19.946Z,101464.25
2023-05-08T16:59:46.449Z,101456.28
2023-05-08T17:02:18.324Z,101465.59
2023-05-08T17:04:49.660Z,101463.41
2023-05-08T17:07:17.215Z,101461.13
2023-05-08T17:09:44.182Z,101464.53
2023-05-08T17:12:10.705Z,101468.09
2023-05-08T17:14:39.410Z,101470.03
2023-05-08T17:17:06.398Z,101469.25
2023-05-08T17:19:33.027Z,101465.63
2023-05-08T17:21:59.909Z,101482.69
2023-05-08T17:24:26.790Z,101475.91
2023-05-08T17:26:53.238Z,101475.38
2023-05-08T17:29:19.685Z,101480.03
2023-05-08T17:31:46.279Z,101474.84
2023-05-08T17:34:13.032Z,101475.16
2023-05-08T17:36:39.521Z,101473.28
2023-05-08T17:39:06.218Z,101470.81
2023-05-08T17:41:32.707Z,101468.59
2023-05-08T17:43:59.145Z,101473.03
2023-05-08T17:46:25.616Z,101475.81
2023-05-08T17:48:52.106Z,101481.31
2023-05-08T17:51:18.649Z,101485.75
2023-05-08T17:53:45.215Z,101478.03
2023-05-08T17:56:11.726Z,101478.34
2023-05-08T17:58:38.072Z,101477.81
2023-05-08T18:01:05.178Z,101478.09
2023-05-08T18:03:31.966Z,101480.59
2023-05-08T18:05:58.455Z,101489.94
2023-05-08T18:08:25.007Z,101494.09
2023-05-08T18:10:51.486Z,101483.06
2023-05-08T18:13:17.892Z,101476.72
2023-05-08T18:15:44.452Z,101483.63
2023-05-08T18:18:10.975Z,101477.66
2023-05-08T18:20:37.467Z,101476.00
2023-05-08T18:23:03.895Z,101474.94
2023-05-08T18:25:30.331Z,101477.69
2023-05-08T18:27:58.830Z,101480.44
2023-05-08T18:30:25.216Z,101481.84
2023-05-08T18:32:53.255Z,101481.59
2023-05-08T18:35:21.515Z,101479.72
2023-05-08T18:37:47.964Z,101486.28
2023-05-08T18:40:14.549Z,101486.03
2023-05-08T18:42:41.285Z,101481.38
2023-05-08T18:45:08.434Z,101483.63
2023-05-08T18:47:34.960Z,101481.47
2023-05-08T18:50:01.426Z,101486.63
2023-05-08T18:52:27.796Z,101482.53
2023-05-08T18:54:54.229Z,101478.97
2023-05-08T18:57:20.774Z,101478.41
2023-05-08T18:59:47.196Z,101476.22
2023-05-08T19:02:13.729Z,101465.81
2023-05-08T19:04:40.531Z,101463.63
2023-05-08T19:07:06.988Z,101464.41
2023-05-08T19:09:34.082Z,101462.50
2023-05-08T19:12:00.844Z,101464.66
2023-05-08T19:14:27.331Z,101470.72
2023-05-08T19:16:55.054Z,101469.09
2023-05-08T19:19:23.582Z,101474.06
2023-05-08T19:21:50.035Z,101466.41
2023-05-08T19:24:20.373Z,101470.25
2023-05-08T19:26:47.388Z,101467.00
2023-05-08T19:29:13.782Z,101467.00
2023-05-08T19:31:40.440Z,101475.84
2023-05-08T19:34:07.287Z,101476.94
2023-05-08T19:36:36.066Z,101480.81
2023-05-08T19:39:04.116Z,101478.66
2023-05-08T19:41:30.588Z,101479.22
2023-05-08T19:43:57.062Z,101475.09
2023-05-08T19:46:23.630Z,101466.84
2023-05-08T19:48:50.157Z,101468.25
2023-05-08T19:51:16.797Z,101461.94
2023-05-08T19:53:43.471Z,101471.28
2023-05-08T19:56:09.914Z,101477.59
2023-05-08T19:58:36.353Z,101468.25
2023-05-08T20:01:03.132Z,101474.31
2023-05-08T20:03:29.599Z,101466.91
2023-05-08T20:05:56.500Z,101463.34
2023-05-08T20:08:23.038Z,101466.66
2023-05-08T20:10:49.577Z,101468.84
2023-05-08T20:13:17.379Z,101479.84
2023-05-08T20:15:43.987Z,101477.63
2023-05-08T20:18:10.504Z,101480.34
2023-05-08T20:20:36.977Z,101481.47
2023-05-08T20:23:04.494Z,101481.50
2023-05-08T20:25:31.199Z,101471.88
2023-05-08T20:27:57.715Z,101480.69
2023-05-08T20:30:24.355Z,101478.72
2023-05-08T20:32:50.845Z,101484.22
2023-05-08T20:35:17.363Z,101480.91
2023-05-08T20:37:45.185Z,101481.78
2023-05-08T20:40:12.468Z,101480.38
2023-05-08T20:42:41.086Z,101484.50
2023-05-08T20:45:09.191Z,101483.97
2023-05-08T20:47:35.839Z,101480.94
2023-05-08T20:50:03.147Z,101479.28
2023-05-08T20:52:32.224Z,101469.97
2023-05-08T20:54:59.139Z,101470.78
2023-05-08T20:57:25.896Z,101466.97
2023-05-08T20:59:52.520Z,101466.69
2023-05-08T21:02:18.910Z,101478.22
2023-05-08T21:04:45.402Z,101459.53
2023-05-08T21:07:11.999Z,101457.34
2023-05-08T21:09:38.579Z,101459.81
2023-05-08T21:12:05.212Z,101457.91
2023-05-08T21:14:31.791Z,101455.41
2023-05-08T21:16:58.296Z,101454.06
2023-05-08T21:19:24.834Z,101435.94
2023-05-08T21:21:51.328Z,101440.59
2023-05-08T21:24:17.854Z,101443.91
2023-05-08T21:26:44.285Z,101434.28
2023-05-08T21:29:11.182Z,101441.41
2023-05-08T21:31:37.790Z,101442.53
2023-05-08T21:34:04.588Z,101435.94
2023-05-08T21:36:32.097Z,101432.91
2023-05-08T21:38:58.596Z,101424.97
2023-05-08T21:41:25.238Z,101417.56
2023-05-08T21:43:51.640Z,101418.38
2023-05-08T21:46:18.166Z,101417.56
2023-05-08T21:48:44.829Z,101415.91
2023-05-08T21:51:11.541Z,101423.31
2023-05-08T21:53:37.990Z,101422.78
2023-05-08T21:56:04.752Z,101415.34
2023-05-08T21:58:31.200Z,101416.75
2023-05-08T22:00:58.644Z,101418.91
2023-05-08T22:03:25.714Z,101412.88
2023-05-08T22:05:52.252Z,101424.97
2023-05-08T22:08:18.653Z,101417.53
2023-05-08T22:10:45.218Z,101421.13
2023-05-08T22:13:12.971Z,101412.88
2023-05-08T22:15:39.380Z,101411.78
2023-05-08T22:18:05.959Z,101410.69
2023-05-08T22:20:33.240Z,101420.84
2023-05-08T22:22:59.755Z,101409.59
2023-05-08T22:25:26.909Z,101410.69
2023-05-08T22:27:53.462Z,101401.91
2023-05-08T22:30:20.084Z,101409.03
2023-05-08T22:32:53.385Z,101407.41
2023-05-08T22:35:24.542Z,101400.78
2023-05-08T22:37:52.534Z,101404.63
2023-05-08T22:40:19.479Z,101400.25
2023-05-08T22:42:46.390Z,101397.53
2023-05-08T22:45:14.167Z,101390.38
2023-05-08T22:47:41.373Z,101386.75
2023-05-08T22:50:09.280Z,101389.28
2023-05-08T22:52:36.155Z,101391.41
2023-05-08T22:55:03.267Z,101385.38
2023-05-08T22:57:29.953Z,101386.50
2023-05-08T22:59:56.432Z,101383.22
2023-05-08T23:02:23.237Z,101372.78
2023-05-08T23:04:49.781Z,101378.28
2023-05-08T23:07:16.642Z,101382.09
2023-05-08T23:09:43.086Z,101377.47
2023-05-08T23:12:09.577Z,101372.25
2023-05-08T23:14:35.977Z,101368.94
2023-05-08T23:17:02.465Z,101366.75
2023-05-08T23:19:28.899Z,101374.16
2023-05-08T23:21:55.331Z,101353.03
2023-05-08T23:24:21.825Z,101353.84
2023-05-08T23:26:49.589Z,101352.47
2023-05-08T23:29:16.055Z,101345.34
2023-05-08T23:31:42.512Z,101346.72
2023-05-08T23:34:09.286Z,101345.91
2023-05-08T23:36:35.876Z,101339.31
2023-05-08T23:39:02.362Z,101339.03
2023-05-08T23:41:28.818Z,101336.84
2023-05-08T23:43:55.437Z,101341.50
2023-05-08T23:46:21.963Z,101329.97
2023-05-08T23:48:48.370Z,101332.19
2023-05-08T23:51:14.729Z,101326.16
2023-05-08T23:53:42.317Z,101328.34
2023-05-08T23:56:08.936Z,101318.44
2023-05-08T23:58:35.547Z,101325.88
